createdAt,value
2022-10-17T00:02:19.643Z,17.00
2022-10-17T00:04:46.711Z,15.30
2022-10-17T00:07:13.257Z,19.23
2022-10-17T00:09:42.940Z,14.43
2022-10-17T00:12:10.203Z,14.93
2022-10-17T00:14:37.536Z,16.20
2022-10-17T00:17:05.198Z,15.70
2022-10-17T00:19:31.841Z,15.15
2022-10-17T00:21:58.457Z,14.52
2022-10-17T00:24:25.106Z,16.35
2022-10-17T00:26:51.715Z,14.20
2022-10-17T00:29:19.199Z,16.90
2022-10-17T00:31:47.715Z,16.25
2022-10-17T00:34:14.366Z,16.67
2022-10-17T00:36:40.991Z,16.60
2022-10-17T00:39:07.691Z,13.80
2022-10-17T00:41:34.633Z,15.77
2022-10-17T00:44:26.995Z,14.90
2022-10-17T00:46:54.262Z,17.95
2022-10-17T00:49:23.241Z,19.50
2022-10-17T00:51:54.470Z,20.55
2022-10-17T00:54:25.513Z,18.30
2022-10-17T00:56:52.875Z,18.30
2022-10-17T00:59:21.921Z,18.45
2022-10-17T01:02:00.054Z,16.83
2022-10-17T01:04:26.671Z,17.00
2022-10-17T01:06:53.406Z,14.65
2022-10-17T01:09:20.484Z,14.98
2022-10-17T01:12:00.453Z,18.23
2022-10-17T01:15:01.164Z,16.85
2022-10-17T01:18:12.633Z,20.40
2022-10-17T01:21:17.891Z,20.75
2022-10-17T01:23:57.847Z,20.98
2022-10-17T01:26:58.911Z,21.45
2022-10-17T01:29:25.700Z,16.48
2022-10-17T01:31:58.642Z,19.70
2022-10-17T01:34:35.928Z,18.02
2022-10-17T01:37:04.742Z,19.17
2022-10-17T01:39:45.646Z,17.90
2022-10-17T01:42:45.081Z,20.90
2022-10-17T01:45:31.269Z,19.80
2022-10-17T01:48:07.565Z,19.67
2022-10-17T01:50:41.562Z,20.42
2022-10-17T01:53:14.645Z,23.05
2022-10-17T01:55:44.877Z,18.33
2022-10-17T01:58:23.252Z,19.23
2022-10-17T02:00:51.985Z,17.85
2022-10-17T02:03:21.003Z,15.95
2022-10-17T02:05:48.043Z,20.27
2022-10-17T02:08:24.468Z,18.20
2022-10-17T02:10:58.261Z,17.45
2022-10-17T02:13:37.570Z,17.38
2022-10-17T02:16:16.712Z,19.50
2022-10-17T02:19:01.498Z,16.80
2022-10-17T02:21:40.044Z,20.13
2022-10-17T02:24:36.018Z,20.00
2022-10-17T02:27:13.606Z,18.17
2022-10-17T02:30:20.193Z,20.25
2022-10-17T02:32:57.527Z,16.38
2022-10-17T02:35:30.255Z,16.58
2022-10-17T02:37:58.325Z,17.40
2022-10-17T02:40:27.853Z,17.90
2022-10-17T02:42:55.874Z,16.85
2022-10-17T02:45:26.656Z,22.35
2022-10-17T02:48:15.273Z,20.00
2022-10-17T02:51:12.025Z,16.33
2022-10-17T02:53:48.365Z,19.10
2022-10-17T02:56:19.569Z,17.83
2022-10-17T02:58:52.429Z,16.42
2022-10-17T03:01:19.900Z,19.73
2022-10-17T03:03:46.700Z,18.55
2022-10-17T03:06:13.540Z,17.17
2022-10-17T03:08:40.147Z,17.58
2022-10-17T03:11:07.228Z,20.88
2022-10-17T03:13:36.329Z,17.55
2022-10-17T03:16:06.594Z,19.70
2022-10-17T03:18:33.540Z,18.10
2022-10-17T03:21:02.552Z,14.20
2022-10-17T03:23:29.567Z,16.70
2022-10-17T03:25:56.238Z,18.23
2022-10-17T03:28:24.695Z,18.88
2022-10-17T03:30:51.319Z,21.10
2022-10-17T03:33:17.941Z,18.52
2022-10-17T03:35:45.056Z,19.13
2022-10-17T03:38:11.833Z,22.42
2022-10-17T03:40:38.838Z,21.10
2022-10-17T03:43:05.806Z,19.63
2022-10-17T03:45:32.799Z,20.70
2022-10-17T03:48:00.107Z,20.55
2022-10-17T03:50:26.817Z,20.02
2022-10-17T03:52:53.683Z,21.73
2022-10-17T03:55:20.349Z,20.08
2022-10-17T03:57:47.643Z,18.48
2022-10-17T04:00:16.619Z,19.73
2022-10-17T04:02:51.605Z,22.40
2022-10-17T04:05:19.327Z,23.50
2022-10-17T04:07:47.282Z,23.67
2022-10-17T04:10:15.837Z,19.17
2022-10-17T04:12:42.631Z,21.95
2022-10-17T04:15:09.990Z,20.23
2022-10-17T04:17:38.221Z,20.70
2022-10-17T04:20:07.153Z,27.30
2022-10-17T04:22:34.371Z,20.02
2022-10-17T04:25:01.289Z,23.42
2022-10-17T04:27:34.227Z,21.88
2022-10-17T04:30:01.099Z,17.95
2022-10-17T04:32:30.781Z,19.50
2022-10-17T04:35:02.209Z,18.88
2022-10-17T04:37:30.364Z,17.88
2022-10-17T04:39:58.083Z,18.08
2022-10-17T04:42:24.849Z,17.77
2022-10-17T04:44:53.946Z,16.17
2022-10-17T04:47:24.751Z,17.77
2022-10-17T04:49:52.872Z,15.80
2022-10-17T04:52:21.733Z,20.95
2022-10-17T04:54:49.978Z,17.45
2022-10-17T04:57:18.575Z,17.70
2022-10-17T04:59:54.170Z,17.67
2022-10-17T05:02:26.413Z,17.60
2022-10-17T05:04:53.228Z,18.67
2022-10-17T05:07:20.958Z,14.52
2022-10-17T05:09:56.540Z,14.07
2022-10-17T05:12:23.318Z,14.90
2022-10-17T05:14:49.937Z,17.77
2022-10-17T05:17:16.847Z,10.25
2022-10-17T05:19:44.033Z,14.75
2022-10-17T05:22:10.852Z,11.45
2022-10-17T05:24:37.540Z,9.35
2022-10-17T05:27:04.201Z,11.55
2022-10-17T05:29:33.176Z,14.88
2022-10-17T05:32:08.046Z,10.68
2022-10-17T05:34:35.526Z,10.73
2022-10-17T05:37:02.102Z,10.73
2022-10-17T05:39:28.995Z,14.52
2022-10-17T05:41:56.973Z,13.05
2022-10-17T05:44:23.801Z,11.55
2022-10-17T05:46:55.454Z,9.77
2022-10-17T05:49:33.286Z,13.40
2022-10-17T05:52:10.022Z,10.88
2022-10-17T05:54:50.792Z,9.20
2022-10-17T05:57:17.703Z,11.95
2022-10-17T05:59:44.437Z,9.77
2022-10-17T06:02:14.010Z,9.73
2022-10-17T06:04:45.451Z,14.05
2022-10-17T06:07:13.313Z,11.70
2022-10-17T06:09:40.722Z,13.73
2022-10-17T06:12:08.895Z,9.63
2022-10-17T06:14:35.911Z,11.55
2022-10-17T06:17:04.203Z,7.97
2022-10-17T06:19:31.150Z,9.40
2022-10-17T06:21:57.794Z,13.52
2022-10-17T06:24:26.548Z,13.15
2022-10-17T06:26:53.799Z,10.25
2022-10-17T06:29:21.544Z,11.23
2022-10-17T06:31:51.077Z,10.70
2022-10-17T06:34:19.052Z,11.40
2022-10-17T06:36:46.428Z,11.90
2022-10-17T06:39:13.752Z,15.90
2022-10-17T06:41:45.970Z,13.32
2022-10-17T06:44:17.921Z,10.68
2022-10-17T06:47:03.310Z,12.88
2022-10-17T06:49:30.057Z,10.85
2022-10-17T06:52:17.123Z,12.02
2022-10-17T06:55:00.551Z,9.80
2022-10-17T06:57:34.196Z,6.60
2022-10-17T07:00:39.258Z,15.60
2022-10-17T07:03:05.930Z,18.48
2022-10-17T07:05:32.790Z,16.17
2022-10-17T07:08:00.138Z,12.13
2022-10-17T07:10:27.095Z,11.32
2022-10-17T07:12:55.730Z,8.05
2022-10-17T07:15:22.526Z,6.85
2022-10-17T07:17:52.610Z,11.82
2022-10-17T07:20:20.417Z,8.88
2022-10-17T07:22:47.108Z,7.80
2022-10-17T07:25:14.621Z,10.57
2022-10-17T07:27:51.353Z,11.25
2022-10-17T07:30:19.307Z,8.38
2022-10-17T07:33:15.026Z,11.93
2022-10-17T07:35:42.105Z,10.30
2022-10-17T07:38:10.304Z,11.20
2022-10-17T07:40:37.391Z,10.55
2022-10-17T07:43:05.055Z,11.00
2022-10-17T07:45:32.227Z,9.95
2022-10-17T07:47:59.120Z,11.18
2022-10-17T07:50:26.501Z,7.05
2022-10-17T07:52:53.085Z,10.68
2022-10-17T07:55:19.725Z,9.15
2022-10-17T07:57:46.406Z,12.27
2022-10-17T08:00:13.189Z,9.10
2022-10-17T08:02:41.419Z,10.63
2022-10-17T08:05:08.401Z,13.73
2022-10-17T08:07:34.962Z,10.20
2022-10-17T08:10:01.949Z,10.52
2022-10-17T08:12:32.530Z,11.98
2022-10-17T08:15:00.909Z,13.02
2022-10-17T08:17:27.786Z,19.00
2022-10-17T08:19:54.937Z,12.00
2022-10-17T08:22:21.652Z,14.65
2022-10-17T08:24:48.336Z,12.93
2022-10-17T08:27:15.685Z,17.42
2022-10-17T08:29:42.298Z,12.57
2022-10-17T08:32:10.208Z,9.60
2022-10-17T08:34:37.124Z,13.65
2022-10-17T08:37:04.856Z,15.05
2022-10-17T08:39:32.051Z,14.13
2022-10-17T08:42:40.626Z,13.13
2022-10-17T08:45:21.360Z,15.15
2022-10-17T08:47:53.107Z,10.90
2022-10-17T08:50:41.302Z,13.35
2022-10-17T08:53:07.913Z,16.45
2022-10-17T08:55:45.841Z,16.73
2022-10-17T08:58:22.852Z,16.55
2022-10-17T09:00:54.248Z,12.90
2022-10-17T09:03:39.708Z,12.88
2022-10-17T09:06:25.273Z,16.83
2022-10-17T09:09:15.222Z,13.45
2022-10-17T09:12:03.837Z,10.32
2022-10-17T09:14:37.038Z,13.80
2022-10-17T09:17:22.269Z,16.95
2022-10-17T09:20:09.944Z,11.38
2022-10-17T09:22:49.980Z,17.23
2022-10-17T09:25:18.847Z,14.65
2022-10-17T09:28:12.532Z,10.13
2022-10-17T09:30:54.327Z,12.25
2022-10-17T09:33:35.345Z,10.90
2022-10-17T09:36:14.813Z,12.95
2022-10-17T09:38:44.756Z,13.32
2022-10-17T09:41:46.014Z,11.30
2022-10-17T09:44:29.251Z,13.25
2022-10-17T09:47:22.528Z,14.40
2022-10-17T09:49:52.713Z,11.23
2022-10-17T09:52:32.267Z,9.88
2022-10-17T09:55:22.503Z,12.65
2022-10-17T09:58:00.090Z,11.93
2022-10-17T10:00:34.037Z,13.18
2022-10-17T10:03:12.818Z,14.30
2022-10-17T10:05:40.763Z,12.95
2022-10-17T10:08:15.879Z,12.43
2022-10-17T10:10:43.671Z,13.98
2022-10-17T10:13:13.186Z,15.38
2022-10-17T10:15:41.364Z,17.60
2022-10-17T10:18:26.563Z,12.00
2022-10-17T10:21:20.202Z,16.27
2022-10-17T10:24:09.832Z,14.02
2022-10-17T10:26:43.813Z,10.80
2022-10-17T10:29:49.297Z,11.43
2022-10-17T10:35:08.701Z,13.57
2022-10-17T10:37:43.413Z,12.55
2022-10-17T10:40:20.639Z,14.07
2022-10-17T10:42:50.633Z,15.05
2022-10-17T10:45:42.802Z,14.52
2022-10-17T10:48:21.531Z,12.38
2022-10-17T10:50:59.417Z,10.65
2022-10-17T10:53:41.319Z,12.38
2022-10-17T10:56:20.495Z,13.70
2022-10-17T10:59:13.670Z,9.45
2022-10-17T11:01:56.537Z,12.47
2022-10-17T11:04:33.174Z,11.63
2022-10-17T11:07:13.499Z,11.20
2022-10-17T11:09:58.774Z,14.25
2022-10-17T11:12:30.667Z,15.60
2022-10-17T11:15:00.383Z,12.75
2022-10-17T11:17:51.346Z,11.93
2022-10-17T11:20:47.453Z,12.15
2022-10-17T11:23:24.033Z,13.63
2022-10-17T11:25:52.656Z,12.75
2022-10-17T11:28:22.972Z,13.20
2022-10-17T11:31:15.804Z,11.48
2022-10-17T11:33:59.773Z,13.13
2022-10-17T11:36:31.111Z,11.95
2022-10-17T11:39:02.340Z,12.95
2022-10-17T11:41:46.268Z,16.13
2022-10-17T11:44:33.997Z,17.05
2022-10-17T11:47:07.369Z,18.92
2022-10-17T11:52:56.108Z,14.73
2022-10-17T11:55:29.481Z,18.27
2022-10-17T11:58:13.840Z,17.30
2022-10-17T12:00:53.610Z,17.55
2022-10-17T12:03:32.588Z,14.13
2022-10-17T12:06:15.974Z,13.77
2022-10-17T12:09:00.846Z,16.90
2022-10-17T12:11:41.450Z,14.15
2022-10-17T12:14:38.998Z,18.27
2022-10-17T12:17:22.534Z,17.27
2022-10-17T12:19:49.370Z,19.95
2022-10-17T12:22:21.037Z,19.02
2022-10-17T12:24:59.781Z,17.75
2022-10-17T12:27:47.308Z,17.27
2022-10-17T12:30:24.149Z,18.35
2022-10-17T12:33:07.703Z,13.48
2022-10-17T12:35:37.537Z,14.82
2022-10-17T12:38:19.354Z,20.65
2022-10-17T12:40:50.631Z,16.63
2022-10-17T12:43:17.350Z,14.85
2022-10-17T12:46:00.846Z,17.88
2022-10-17T12:48:36.417Z,18.45
2022-10-17T12:54:16.347Z,15.90
2022-10-17T12:56:48.688Z,16.20
2022-10-17T12:59:25.694Z,17.50
2022-10-17T13:01:57.373Z,17.77
2022-10-17T13:04:25.896Z,15.00
2022-10-17T13:06:55.694Z,18.45
2022-10-17T13:09:29.682Z,16.08
2022-10-17T13:11:58.809Z,16.83
2022-10-17T13:14:26.764Z,16.95
2022-10-17T13:17:02.210Z,14.43
2022-10-17T13:19:47.335Z,16.17
2022-10-17T13:22:27.016Z,19.20
2022-10-17T13:25:09.861Z,15.13
2022-10-17T13:27:37.492Z,18.52
2022-10-17T13:30:31.234Z,13.25
2022-10-17T13:33:00.551Z,16.77
2022-10-17T13:35:58.732Z,13.52
2022-10-17T13:38:28.984Z,14.40
2022-10-17T13:41:05.799Z,15.35
2022-10-17T13:43:38.730Z,17.13
2022-10-17T13:46:32.556Z,14.88
2022-10-17T13:48:53.434Z,11.38
2022-10-17T13:51:20.282Z,13.95
2022-10-17T13:53:46.949Z,13.05
2022-10-17T13:56:28.015Z,16.38
2022-10-17T13:59:04.968Z,15.50
2022-10-17T14:01:34.861Z,11.30
2022-10-17T14:04:08.880Z,10.25
2022-10-17T14:06:46.159Z,11.38
2022-10-17T14:09:25.612Z,12.50
2022-10-17T14:12:01.544Z,10.18
2022-10-17T14:14:32.143Z,11.38
2022-10-17T14:17:22.344Z,10.98
2022-10-17T14:20:06.572Z,8.80
2022-10-17T14:22:39.964Z,11.63
2022-10-17T14:25:26.789Z,11.82
2022-10-17T14:28:09.563Z,13.52
2022-10-17T14:30:57.450Z,9.40
2022-10-17T14:33:29.564Z,14.15
2022-10-17T14:35:59.537Z,11.05
2022-10-17T14:38:27.630Z,10.70
2022-10-17T14:41:30.578Z,11.43
2022-10-17T14:44:01.995Z,11.27
2022-10-17T14:46:29.016Z,11.48
2022-10-17T14:49:03.460Z,12.90
2022-10-17T14:51:39.948Z,9.02
2022-10-17T14:54:25.898Z,9.55
2022-10-17T14:56:54.890Z,10.07
2022-10-17T14:59:52.097Z,11.32
2022-10-17T15:02:13.607Z,10.90
2022-10-17T15:04:40.392Z,10.60
2022-10-17T15:07:07.019Z,11.10
2022-10-17T15:09:33.711Z,9.35
2022-10-17T15:12:02.513Z,11.82
2022-10-17T15:14:29.428Z,15.27
2022-10-17T15:16:56.612Z,11.80
2022-10-17T15:19:23.380Z,10.60
2022-10-17T15:21:49.966Z,14.32
2022-10-17T15:24:16.478Z,12.30
2022-10-17T15:26:43.225Z,13.40
2022-10-17T15:29:15.963Z,16.92
2022-10-17T15:31:42.600Z,13.93
2022-10-17T15:34:09.399Z,17.98
2022-10-17T15:36:40.183Z,15.43
2022-10-17T15:39:07.158Z,17.40
2022-10-17T15:41:34.003Z,17.27
2022-10-17T15:44:00.771Z,34.97
2022-10-17T15:46:30.205Z,18.10
2022-10-17T15:49:01.292Z,19.00
2022-10-17T15:51:27.889Z,20.73
2022-10-17T15:53:54.519Z,27.20
2022-10-17T15:56:41.813Z,18.92
2022-10-17T15:59:14.720Z,19.63
2022-10-17T16:01:42.501Z,18.75
2022-10-17T16:04:15.160Z,23.40
2022-10-17T16:06:42.655Z,17.00
2022-10-17T16:09:10.035Z,12.32
2022-10-17T16:11:42.505Z,17.80
2022-10-17T16:14:15.845Z,14.13
2022-10-17T16:19:09.713Z,17.15
2022-10-17T16:21:39.031Z,15.18
2022-10-17T16:24:12.261Z,20.42
2022-10-17T16:26:40.381Z,20.15
2022-10-17T16:29:07.169Z,20.83
2022-10-17T16:31:36.293Z,17.25
2022-10-17T16:34:04.509Z,22.30
2022-10-17T16:36:31.335Z,20.17
2022-10-17T16:38:58.679Z,23.60
2022-10-17T16:41:34.257Z,18.83
2022-10-17T16:44:04.338Z,21.33
2022-10-17T16:46:32.205Z,27.58
2022-10-17T16:48:59.931Z,18.20
2022-10-17T16:51:26.751Z,20.90
2022-10-17T16:53:54.672Z,56.65
2022-10-17T16:56:23.102Z,31.95
2022-10-17T16:58:50.581Z,30.52
2022-10-17T17:01:23.206Z,38.50
2022-10-17T17:03:51.240Z,21.48
2022-10-17T17:06:21.260Z,37.03
2022-10-17T17:08:47.961Z,90.03
2022-10-17T17:11:17.060Z,77.78
2022-10-17T17:13:44.039Z,94.72
2022-10-17T17:16:13.473Z,96.45
2022-10-17T17:18:41.470Z,86.63
2022-10-17T17:21:10.285Z,65.53
2022-10-17T17:23:40.081Z,50.08
2022-10-17T17:26:10.867Z,48.88
2022-10-17T17:28:40.875Z,41.67
2022-10-17T17:31:13.180Z,40.22
2022-10-17T17:33:41.351Z,37.92
2022-10-17T17:36:10.409Z,31.70
2022-10-17T17:38:37.200Z,29.15
2022-10-17T17:41:04.212Z,26.73
2022-10-17T17:43:32.685Z,29.83
2022-10-17T17:46:02.518Z,42.13
2022-10-17T17:48:29.671Z,31.83
2022-10-17T17:50:56.733Z,26.13
2022-10-17T17:53:24.810Z,24.00
2022-10-17T17:56:06.250Z,22.30
2022-10-17T17:58:39.221Z,24.70
2022-10-17T18:01:13.201Z,26.17
2022-10-17T18:03:41.527Z,33.92
2022-10-17T18:06:08.739Z,27.48
2022-10-17T18:08:36.110Z,26.02
2022-10-17T18:11:03.968Z,28.90
2022-10-17T18:13:30.906Z,50.55
2022-10-17T18:15:59.533Z,29.23
2022-10-17T18:18:28.337Z,41.25
2022-10-17T18:20:55.191Z,45.38
2022-10-17T18:23:22.787Z,41.75
2022-10-17T18:26:00.941Z,33.58
2022-10-17T18:28:27.830Z,34.88
2022-10-17T18:30:54.705Z,39.05
2022-10-17T18:33:21.574Z,27.58
2022-10-17T18:35:48.368Z,74.78
2022-10-17T18:38:15.006Z,50.75
2022-10-17T18:40:41.550Z,40.97
2022-10-17T18:43:08.386Z,30.52
2022-10-17T18:45:35.013Z,32.88
2022-10-17T18:48:01.676Z,35.55
2022-10-17T18:50:28.410Z,34.67
2022-10-17T18:52:57.630Z,30.58
2022-10-17T18:55:31.742Z,28.75
2022-10-17T19:03:35.972Z,28.08
2022-10-17T19:06:04.561Z,32.03
2022-10-17T19:08:31.401Z,30.38
2022-10-17T19:10:57.994Z,28.75
2022-10-17T19:13:33.442Z,26.77
2022-10-17T19:16:30.151Z,27.58
2022-10-17T19:18:59.656Z,24.75
2022-10-17T19:21:26.380Z,23.67
2022-10-17T19:23:58.793Z,25.48
2022-10-17T19:26:26.778Z,28.13
2022-10-17T19:28:54.147Z,32.80
2022-10-17T19:31:26.996Z,30.17
2022-10-17T19:33:55.482Z,31.92
2022-10-17T19:36:27.472Z,31.75
2022-10-17T19:38:57.491Z,29.92
2022-10-17T19:41:24.511Z,27.05
2022-10-17T19:43:51.582Z,28.63
2022-10-17T19:46:20.754Z,33.72
2022-10-17T19:48:49.079Z,27.77
2022-10-17T19:51:17.221Z,26.13
2022-10-17T19:53:44.975Z,26.40
2022-10-17T19:56:12.290Z,29.02
2022-10-17T19:58:46.332Z,31.88
2022-10-17T20:01:20.250Z,26.85
2022-10-17T20:03:47.243Z,25.83
2022-10-17T20:06:14.464Z,32.83
2022-10-17T20:08:42.205Z,29.92
2022-10-17T20:11:12.121Z,33.75
2022-10-17T20:13:39.408Z,36.28
2022-10-17T20:16:08.634Z,29.25
2022-10-17T20:18:35.362Z,32.47
2022-10-17T20:21:05.071Z,27.98
2022-10-17T20:23:32.091Z,28.95
2022-10-17T20:26:13.251Z,31.33
2022-10-17T20:28:46.352Z,33.28
2022-10-17T20:31:13.637Z,31.85
2022-10-17T20:33:41.479Z,38.08
2022-10-17T20:36:11.296Z,32.92
2022-10-17T20:38:38.434Z,31.63
2022-10-17T20:41:07.244Z,32.05
2022-10-17T20:43:34.540Z,32.83
2022-10-17T20:46:08.691Z,28.65
2022-10-17T20:48:52.177Z,31.85
2022-10-17T20:51:19.439Z,32.30
2022-10-17T20:53:46.569Z,37.63
2022-10-17T20:56:21.856Z,30.35
2022-10-17T20:58:59.892Z,30.35
2022-10-17T21:01:28.209Z,31.70
2022-10-17T21:03:54.930Z,29.98
2022-10-17T21:06:21.828Z,27.92
2022-10-17T21:08:49.480Z,32.88
2022-10-17T21:11:17.818Z,31.02
2022-10-17T21:13:45.733Z,28.52
2022-10-17T21:16:19.231Z,27.90
2022-10-17T21:21:21.528Z,24.60
2022-10-17T21:23:50.408Z,35.65
2022-10-17T21:26:18.220Z,25.75
2022-10-17T21:28:46.242Z,26.23
2022-10-17T21:31:17.419Z,26.02
2022-10-17T21:33:48.668Z,32.63
2022-10-17T21:36:16.844Z,29.90
2022-10-17T21:38:45.755Z,26.88
2022-10-17T21:41:14.369Z,31.25
2022-10-17T21:43:41.813Z,29.92
2022-10-17T21:46:17.243Z,37.25
2022-10-17T21:48:45.514Z,27.95
2022-10-17T21:51:15.004Z,29.17
2022-10-17T21:53:42.437Z,29.02
2022-10-17T21:56:14.431Z,27.73
2022-10-17T21:58:42.055Z,31.80
2022-10-17T22:01:15.547Z,31.40
2022-10-17T22:03:46.810Z,32.65
2022-10-17T22:09:28.258Z,31.17
2022-10-17T22:11:56.667Z,35.42
2022-10-17T22:14:27.053Z,30.08
2022-10-17T22:16:54.365Z,32.05
2022-10-17T22:19:26.139Z,32.17
2022-10-17T22:21:53.055Z,31.70
2022-10-17T22:26:52.735Z,30.08
2022-10-17T22:29:19.939Z,35.45
2022-10-17T22:31:46.944Z,32.78
2022-10-17T22:34:15.487Z,30.70
2022-10-17T22:36:42.664Z,42.72
2022-10-17T22:39:09.866Z,27.48
2022-10-17T22:41:36.812Z,34.00
2022-10-17T22:44:03.554Z,30.88
2022-10-17T22:46:30.297Z,33.78
2022-10-17T22:48:56.945Z,36.75
2022-10-17T22:53:55.116Z,37.72
2022-10-17T22:56:22.811Z,30.50
2022-10-17T22:58:49.931Z,35.95
2022-10-17T23:01:21.581Z,34.42
2022-10-17T23:03:48.524Z,36.75
2022-10-17T23:06:15.328Z,33.33
2022-10-17T23:08:42.719Z,36.03
2022-10-17T23:11:10.291Z,29.30
2022-10-17T23:13:37.363Z,35.38
2022-10-17T23:16:04.131Z,33.90
2022-10-17T23:20:57.315Z,29.63
2022-10-17T23:23:24.056Z,34.00
2022-10-17T23:25:51.579Z,32.28
2022-10-17T23:28:18.279Z,32.28
2022-10-17T23:30:45.255Z,32.67
2022-10-17T23:33:13.343Z,35.50
2022-10-17T23:35:40.426Z,34.50
2022-10-17T23:38:07.303Z,30.70
2022-10-17T23:40:35.551Z,34.50
2022-10-17T23:43:02.910Z,37.40
2022-10-17T23:45:33.393Z,36.90
2022-10-17T23:48:04.858Z,33.30
2022-10-17T23:50:31.601Z,31.70
2022-10-17T23:52:58.205Z,33.67
2022-10-17T23:55:24.787Z,36.05
2022-10-17T23:57:51.337Z,33.38
